sensor_id;sensor_type;location;lat;lon;timestamp;temperature;humidity
42617;DHT22;28250;52.320;0.360;2023-04-25T00:00:04;3.20;99.90
42617;DHT22;28250;52.320;0.360;2023-04-25T00:02:38;3.10;99.90
42617;DHT22;28250;52.320;0.360;2023-04-25T00:05:04;3.10;99.90
42617;DHT22;28250;52.320;0.360;2023-04-25T00:07:30;3.20;99.90
42617;DHT22;28250;52.320;0.360;2023-04-25T00:09:58;3.20;99.90
42617;DHT22;28250;52.320;0.360;2023-04-25T00:12:24;3.20;99.90
42617;DHT22;28250;52.320;0.360;2023-04-25T00:14:51;3.20;99.90
42617;DHT22;28250;52.320;0.360;2023-04-25T00:17:18;3.20;99.90
42617;DHT22;28250;52.320;0.360;2023-04-25T00:19:47;3.20;99.90
42617;DHT22;28250;52.320;0.360;2023-04-25T00:22:14;3.20;99.90
42617;DHT22;28250;52.320;0.360;2023-04-25T00:24:40;3.10;99.90
42617;DHT22;28250;52.320;0.360;2023-04-25T00:27:06;3.10;99.90
42617;DHT22;28250;52.320;0.360;2023-04-25T00:29:32;3.20;99.90
42617;DHT22;28250;52.320;0.360;2023-04-25T00:31:58;3.10;99.90
42617;DHT22;28250;52.320;0.360;2023-04-25T00:34:24;3.10;99.90
42617;DHT22;28250;52.320;0.360;2023-04-25T00:36:50;3.10;99.90
42617;DHT22;28250;52.320;0.360;2023-04-25T00:39:16;3.10;99.90
42617;DHT22;28250;52.320;0.360;2023-04-25T00:41:43;3.10;99.90
42617;DHT22;28250;52.320;0.360;2023-04-25T00:44:11;3.00;99.90
42617;DHT22;28250;52.320;0.360;2023-04-25T00:46:39;3.00;99.90
42617;DHT22;28250;52.320;0.360;2023-04-25T00:49:05;3.00;99.90
42617;DHT22;28250;52.320;0.360;2023-04-25T00:51:32;3.10;99.90
42617;DHT22;28250;52.320;0.360;2023-04-25T00:53:59;3.00;99.90
42617;DHT22;28250;52.320;0.360;2023-04-25T00:56:26;2.90;99.90
42617;DHT22;28250;52.320;0.360;2023-04-25T00:58:53;2.90;99.90
42617;DHT22;28250;52.320;0.360;2023-04-25T01:01:22;3.00;99.90
42617;DHT22;28250;52.320;0.360;2023-04-25T01:03:49;3.00;99.90
42617;DHT22;28250;52.320;0.360;2023-04-25T01:06:16;2.90;99.90
42617;DHT22;28250;52.320;0.360;2023-04-25T01:08:43;2.90;99.90
42617;DHT22;28250;52.320;0.360;2023-04-25T01:11:09;2.80;99.90
42617;DHT22;28250;52.320;0.360;2023-04-25T01:13:35;2.80;99.90
42617;DHT22;28250;52.320;0.360;2023-04-25T01:16:02;2.80;99.90
42617;DHT22;28250;52.320;0.360;2023-04-25T01:18:28;2.80;99.90
42617;DHT22;28250;52.320;0.360;2023-04-25T01:20:55;2.80;99.90
42617;DHT22;28250;52.320;0.360;2023-04-25T01:23:27;2.70;99.90
42617;DHT22;28250;52.320;0.360;2023-04-25T01:25:54;2.70;99.90
42617;DHT22;28250;52.320;0.360;2023-04-25T01:28:20;2.60;99.90
42617;DHT22;28250;52.320;0.360;2023-04-25T01:30:47;2.50;99.90
42617;DHT22;28250;52.320;0.360;2023-04-25T01:33:14;2.50;99.90
42617;DHT22;28250;52.320;0.360;2023-04-25T01:35:41;2.40;99.90
42617;DHT22;28250;52.320;0.360;2023-04-25T01:38:08;2.40;99.90
42617;DHT22;28250;52.320;0.360;2023-04-25T01:40:34;2.40;99.90
42617;DHT22;28250;52.320;0.360;2023-04-25T01:43:03;2.40;99.90
42617;DHT22;28250;52.320;0.360;2023-04-25T01:45:29;2.30;99.90
42617;DHT22;28250;52.320;0.360;2023-04-25T01:47:55;2.30;99.90
42617;DHT22;28250;52.320;0.360;2023-04-25T01:50:25;2.30;99.90
42617;DHT22;28250;52.320;0.360;2023-04-25T01:52:51;2.30;99.90
42617;DHT22;28250;52.320;0.360;2023-04-25T01:55:18;2.20;99.90
42617;DHT22;28250;52.320;0.360;2023-04-25T01:57:53;2.20;99.90
42617;DHT22;28250;52.320;0.360;2023-04-25T02:00:25;2.20;99.90
42617;DHT22;28250;52.320;0.360;2023-04-25T02:02:51;2.10;99.90
42617;DHT22;28250;52.320;0.360;2023-04-25T02:05:27;2.20;99.90
42617;DHT22;28250;52.320;0.360;2023-04-25T02:07:53;2.10;99.90
42617;DHT22;28250;52.320;0.360;2023-04-25T02:10:19;2.10;99.90
42617;DHT22;28250;52.320;0.360;2023-04-25T02:13:05;2.00;99.90
42617;DHT22;28250;52.320;0.360;2023-04-25T02:15:43;2.00;99.90
42617;DHT22;28250;52.320;0.360;2023-04-25T02:18:17;2.00;99.90
42617;DHT22;28250;52.320;0.360;2023-04-25T02:20:44;2.10;99.90
42617;DHT22;28250;52.320;0.360;2023-04-25T02:23:11;2.10;99.90
42617;DHT22;28250;52.320;0.360;2023-04-25T02:25:37;2.20;99.90
42617;DHT22;28250;52.320;0.360;2023-04-25T02:28:03;2.30;99.90
42617;DHT22;28250;52.320;0.360;2023-04-25T02:30:29;2.30;99.90
42617;DHT22;28250;52.320;0.360;2023-04-25T02:32:56;2.20;99.90
42617;DHT22;28250;52.320;0.360;2023-04-25T02:35:22;2.20;99.90
42617;DHT22;28250;52.320;0.360;2023-04-25T02:37:48;2.10;99.90
42617;DHT22;28250;52.320;0.360;2023-04-25T02:40:14;2.10;99.90
42617;DHT22;28250;52.320;0.360;2023-04-25T02:42:40;2.10;99.90
42617;DHT22;28250;52.320;0.360;2023-04-25T02:45:06;2.10;99.90
42617;DHT22;28250;52.320;0.360;2023-04-25T02:47:34;2.10;99.90
42617;DHT22;28250;52.320;0.360;2023-04-25T02:50:00;2.10;99.90
42617;DHT22;28250;52.320;0.360;2023-04-25T02:52:26;2.00;99.90
42617;DHT22;28250;52.320;0.360;2023-04-25T02:54:59;2.10;99.90
42617;DHT22;28250;52.320;0.360;2023-04-25T02:57:26;2.10;99.90
42617;DHT22;28250;52.320;0.360;2023-04-25T02:59:52;2.10;99.90
42617;DHT22;28250;52.320;0.360;2023-04-25T03:02:18;2.10;99.90
42617;DHT22;28250;52.320;0.360;2023-04-25T03:04:44;2.20;99.90
42617;DHT22;28250;52.320;0.360;2023-04-25T03:07:11;2.10;99.90
42617;DHT22;28250;52.320;0.360;2023-04-25T03:09:37;2.10;99.90
42617;DHT22;28250;52.320;0.360;2023-04-25T03:12:04;2.10;99.90
42617;DHT22;28250;52.320;0.360;2023-04-25T03:14:32;2.10;99.90
42617;DHT22;28250;52.320;0.360;2023-04-25T03:16:58;2.00;99.90
42617;DHT22;28250;52.320;0.360;2023-04-25T03:19:24;2.00;99.90
42617;DHT22;28250;52.320;0.360;2023-04-25T03:21:50;2.00;99.90
42617;DHT22;28250;52.320;0.360;2023-04-25T03:24:17;2.00;99.90
42617;DHT22;28250;52.320;0.360;2023-04-25T03:26:43;2.00;99.90
42617;DHT22;28250;52.320;0.360;2023-04-25T03:29:09;2.00;99.90
42617;DHT22;28250;52.320;0.360;2023-04-25T03:31:36;1.90;99.90
42617;DHT22;28250;52.320;0.360;2023-04-25T03:34:02;1.90;99.90
42617;DHT22;28250;52.320;0.360;2023-04-25T03:36:28;1.90;99.90
42617;DHT22;28250;52.320;0.360;2023-04-25T03:38:53;1.80;99.90
42617;DHT22;28250;52.320;0.360;2023-04-25T03:41:21;1.70;99.90
42617;DHT22;28250;52.320;0.360;2023-04-25T03:44:01;1.60;99.90
42617;DHT22;28250;52.320;0.360;2023-04-25T03:46:27;1.60;99.90
42617;DHT22;28250;52.320;0.360;2023-04-25T03:48:53;1.50;99.90
42617;DHT22;28250;52.320;0.360;2023-04-25T03:51:23;1.50;99.90
42617;DHT22;28250;52.320;0.360;2023-04-25T03:53:49;1.40;99.90
42617;DHT22;28250;52.320;0.360;2023-04-25T03:56:21;1.40;99.90
42617;DHT22;28250;52.320;0.360;2023-04-25T03:58:55;1.40;99.90
42617;DHT22;28250;52.320;0.360;2023-04-25T04:01:24;1.40;99.90
42617;DHT22;28250;52.320;0.360;2023-04-25T04:03:50;1.40;99.90
42617;DHT22;28250;52.320;0.360;2023-04-25T04:06:17;1.40;99.90
42617;DHT22;28250;52.320;0.360;2023-04-25T04:08:54;1.40;99.90
42617;DHT22;28250;52.320;0.360;2023-04-25T04:11:21;1.40;99.90
42617;DHT22;28250;52.320;0.360;2023-04-25T04:13:47;1.30;99.90
42617;DHT22;28250;52.320;0.360;2023-04-25T04:16:13;1.30;99.90
42617;DHT22;28250;52.320;0.360;2023-04-25T04:18:42;1.20;99.90
42617;DHT22;28250;52.320;0.360;2023-04-25T04:21:13;1.10;99.90
42617;DHT22;28250;52.320;0.360;2023-04-25T04:23:40;1.10;99.90
42617;DHT22;28250;52.320;0.360;2023-04-25T04:26:08;1.10;99.90
42617;DHT22;28250;52.320;0.360;2023-04-25T04:28:42;1.10;99.90
42617;DHT22;28250;52.320;0.360;2023-04-25T04:31:30;1.10;99.90
42617;DHT22;28250;52.320;0.360;2023-04-25T04:33:56;1.10;99.90
42617;DHT22;28250;52.320;0.360;2023-04-25T04:36:22;1.20;99.90
42617;DHT22;28250;52.320;0.360;2023-04-25T04:38:49;1.20;99.90
42617;DHT22;28250;52.320;0.360;2023-04-25T04:41:33;1.20;99.90
42617;DHT22;28250;52.320;0.360;2023-04-25T04:44:12;1.20;99.90
42617;DHT22;28250;52.320;0.360;2023-04-25T04:47:04;1.20;99.90
42617;DHT22;28250;52.320;0.360;2023-04-25T04:49:59;1.20;99.90
42617;DHT22;28250;52.320;0.360;2023-04-25T04:52:31;1.10;99.90
42617;DHT22;28250;52.320;0.360;2023-04-25T04:55:33;1.10;99.90
42617;DHT22;28250;52.320;0.360;2023-04-25T04:58:14;1.10;99.90
42617;DHT22;28250;52.320;0.360;2023-04-25T05:00:50;1.10;99.90
42617;DHT22;28250;52.320;0.360;2023-04-25T05:03:39;1.10;99.90
42617;DHT22;28250;52.320;0.360;2023-04-25T05:06:12;1.20;99.90
42617;DHT22;28250;52.320;0.360;2023-04-25T05:09:07;1.20;99.90
42617;DHT22;28250;52.320;0.360;2023-04-25T05:12:03;1.30;99.90
42617;DHT22;28250;52.320;0.360;2023-04-25T05:14:38;1.20;99.90
42617;DHT22;28250;52.320;0.360;2023-04-25T05:17:11;1.30;99.90
42617;DHT22;28250;52.320;0.360;2023-04-25T05:20:05;1.30;99.90
42617;DHT22;28250;52.320;0.360;2023-04-25T05:22:58;1.30;99.90
42617;DHT22;28250;52.320;0.360;2023-04-25T05:25:42;1.30;99.90
42617;DHT22;28250;52.320;0.360;2023-04-25T05:28:33;1.40;99.90
42617;DHT22;28250;52.320;0.360;2023-04-25T05:31:12;1.40;99.90
42617;DHT22;28250;52.320;0.360;2023-04-25T05:33:52;1.40;99.90
42617;DHT22;28250;52.320;0.360;2023-04-25T05:36:19;1.40;99.90
42617;DHT22;28250;52.320;0.360;2023-04-25T05:38:46;1.50;99.90
42617;DHT22;28250;52.320;0.360;2023-04-25T05:41:21;1.60;99.90
42617;DHT22;28250;52.320;0.360;2023-04-25T05:44:10;1.60;99.90
42617;DHT22;28250;52.320;0.360;2023-04-25T05:46:48;1.60;99.90
42617;DHT22;28250;52.320;0.360;2023-04-25T05:49:15;1.70;99.90
42617;DHT22;28250;52.320;0.360;2023-04-25T05:52:03;1.80;99.90
42617;DHT22;28250;52.320;0.360;2023-04-25T05:54:55;1.90;99.90
42617;DHT22;28250;52.320;0.360;2023-04-25T05:57:26;2.00;99.90
42617;DHT22;28250;52.320;0.360;2023-04-25T05:59:54;2.10;99.90
42617;DHT22;28250;52.320;0.360;2023-04-25T06:02:22;2.10;99.90
42617;DHT22;28250;52.320;0.360;2023-04-25T06:04:52;2.20;99.90
42617;DHT22;28250;52.320;0.360;2023-04-25T06:07:19;2.20;99.90
42617;DHT22;28250;52.320;0.360;2023-04-25T06:09:46;2.30;99.90
42617;DHT22;28250;52.320;0.360;2023-04-25T06:12:12;2.40;99.90
42617;DHT22;28250;52.320;0.360;2023-04-25T06:14:38;2.90;99.90
42617;DHT22;28250;52.320;0.360;2023-04-25T06:17:04;4.00;99.90
42617;DHT22;28250;52.320;0.360;2023-04-25T06:19:35;5.00;99.90
42617;DHT22;28250;52.320;0.360;2023-04-25T06:22:01;5.70;99.90
42617;DHT22;28250;52.320;0.360;2023-04-25T06:24:28;6.80;99.90
42617;DHT22;28250;52.320;0.360;2023-04-25T06:26:54;7.10;99.90
42617;DHT22;28250;52.320;0.360;2023-04-25T06:29:21;6.90;99.90
42617;DHT22;28250;52.320;0.360;2023-04-25T06:31:47;7.60;99.90
42617;DHT22;28250;52.320;0.360;2023-04-25T06:34:13;8.10;99.90
42617;DHT22;28250;52.320;0.360;2023-04-25T06:36:40;8.30;99.90
42617;DHT22;28250;52.320;0.360;2023-04-25T06:39:09;8.00;99.90
42617;DHT22;28250;52.320;0.360;2023-04-25T06:41:35;7.40;99.90
42617;DHT22;28250;52.320;0.360;2023-04-25T06:44:05;8.40;99.90
42617;DHT22;28250;52.320;0.360;2023-04-25T06:46:39;9.10;99.90
42617;DHT22;28250;52.320;0.360;2023-04-25T06:49:05;8.70;99.90
42617;DHT22;28250;52.320;0.360;2023-04-25T06:51:31;9.10;99.90
42617;DHT22;28250;52.320;0.360;2023-04-25T06:53:57;8.80;99.90
42617;DHT22;28250;52.320;0.360;2023-04-25T06:56:29;8.90;99.90
42617;DHT22;28250;52.320;0.360;2023-04-25T06:59:02;8.40;99.90
42617;DHT22;28250;52.320;0.360;2023-04-25T07:01:31;7.80;99.90
42617;DHT22;28250;52.320;0.360;2023-04-25T07:03:59;7.80;99.90
42617;DHT22;28250;52.320;0.360;2023-04-25T07:06:26;8.10;99.90
42617;DHT22;28250;52.320;0.360;2023-04-25T07:08:53;8.90;99.90
42617;DHT22;28250;52.320;0.360;2023-04-25T07:11:20;9.10;99.90
42617;DHT22;28250;52.320;0.360;2023-04-25T07:13:46;8.80;99.90
42617;DHT22;28250;52.320;0.360;2023-04-25T07:16:12;9.10;99.90
42617;DHT22;28250;52.320;0.360;2023-04-25T07:18:38;8.80;99.90
42617;DHT22;28250;52.320;0.360;2023-04-25T07:21:04;9.10;99.90
42617;DHT22;28250;52.320;0.360;2023-04-25T07:23:32;9.40;99.90
42617;DHT22;28250;52.320;0.360;2023-04-25T07:26:01;10.00;99.90
42617;DHT22;28250;52.320;0.360;2023-04-25T07:28:28;10.20;99.90
42617;DHT22;28250;52.320;0.360;2023-04-25T07:30:54;9.40;99.90
42617;DHT22;28250;52.320;0.360;2023-04-25T07:33:20;8.90;99.90
42617;DHT22;28250;52.320;0.360;2023-04-25T07:35:46;9.30;99.90
42617;DHT22;28250;52.320;0.360;2023-04-25T07:38:13;8.60;99.90
42617;DHT22;28250;52.320;0.360;2023-04-25T07:40:39;7.60;99.90
42617;DHT22;28250;52.320;0.360;2023-04-25T07:43:10;7.70;99.90
42617;DHT22;28250;52.320;0.360;2023-04-25T07:45:49;7.70;99.90
42617;DHT22;28250;52.320;0.360;2023-04-25T07:48:18;7.70;99.90
42617;DHT22;28250;52.320;0.360;2023-04-25T07:50:45;7.60;99.90
42617;DHT22;28250;52.320;0.360;2023-04-25T07:53:11;7.80;99.90
42617;DHT22;28250;52.320;0.360;2023-04-25T07:55:45;7.80;99.90
42617;DHT22;28250;52.320;0.360;2023-04-25T07:58:15;7.80;99.90
42617;DHT22;28250;52.320;0.360;2023-04-25T08:00:47;7.70;99.90
42617;DHT22;28250;52.320;0.360;2023-04-25T08:03:37;7.70;99.90
42617;DHT22;28250;52.320;0.360;2023-04-25T08:06:07;7.50;99.90
42617;DHT22;28250;52.320;0.360;2023-04-25T08:08:40;7.60;99.90
42617;DHT22;28250;52.320;0.360;2023-04-25T08:11:07;7.60;99.90
42617;DHT22;28250;52.320;0.360;2023-04-25T08:13:33;7.70;99.90
42617;DHT22;28250;52.320;0.360;2023-04-25T08:15:59;7.70;99.90
42617;DHT22;28250;52.320;0.360;2023-04-25T08:18:25;7.70;99.90
42617;DHT22;28250;52.320;0.360;2023-04-25T08:20:52;7.70;99.90
42617;DHT22;28250;52.320;0.360;2023-04-25T08:23:18;7.70;99.90
42617;DHT22;28250;52.320;0.360;2023-04-25T08:26:02;7.80;99.90
42617;DHT22;28250;52.320;0.360;2023-04-25T08:28:29;7.70;99.90
42617;DHT22;28250;52.320;0.360;2023-04-25T08:30:57;7.80;99.90
42617;DHT22;28250;52.320;0.360;2023-04-25T08:33:26;7.90;99.90
42617;DHT22;28250;52.320;0.360;2023-04-25T08:36:05;8.00;99.90
42617;DHT22;28250;52.320;0.360;2023-04-25T08:38:32;8.10;99.90
42617;DHT22;28250;52.320;0.360;2023-04-25T08:40:59;8.20;99.90
42617;DHT22;28250;52.320;0.360;2023-04-25T08:43:29;8.10;99.90
42617;DHT22;28250;52.320;0.360;2023-04-25T08:46:00;7.90;99.90
42617;DHT22;28250;52.320;0.360;2023-04-25T08:48:45;8.00;99.90
42617;DHT22;28250;52.320;0.360;2023-04-25T08:51:21;8.20;99.90
42617;DHT22;28250;52.320;0.360;2023-04-25T08:53:51;8.10;99.90
42617;DHT22;28250;52.320;0.360;2023-04-25T08:56:18;8.40;99.90
42617;DHT22;28250;52.320;0.360;2023-04-25T08:58:48;8.30;99.90
42617;DHT22;28250;52.320;0.360;2023-04-25T09:01:17;8.60;99.90
42617;DHT22;28250;52.320;0.360;2023-04-25T09:03:49;8.70;99.90
42617;DHT22;28250;52.320;0.360;2023-04-25T09:06:16;8.80;99.90
42617;DHT22;28250;52.320;0.360;2023-04-25T09:08:43;8.80;99.90
42617;DHT22;28250;52.320;0.360;2023-04-25T09:11:09;8.70;99.90
42617;DHT22;28250;52.320;0.360;2023-04-25T09:13:36;8.90;99.90
42617;DHT22;28250;52.320;0.360;2023-04-25T09:16:28;8.50;99.90
42617;DHT22;28250;52.320;0.360;2023-04-25T09:19:37;8.60;99.90
42617;DHT22;28250;52.320;0.360;2023-04-25T09:22:12;8.60;99.90
42617;DHT22;28250;52.320;0.360;2023-04-25T09:24:45;9.10;99.90
42617;DHT22;28250;52.320;0.360;2023-04-25T09:27:18;9.70;99.90
42617;DHT22;28250;52.320;0.360;2023-04-25T09:29:47;9.30;99.90
42617;DHT22;28250;52.320;0.360;2023-04-25T09:32:17;8.80;99.90
42617;DHT22;28250;52.320;0.360;2023-04-25T09:34:52;8.60;99.90
42617;DHT22;28250;52.320;0.360;2023-04-25T09:37:21;8.50;99.90
42617;DHT22;28250;52.320;0.360;2023-04-25T09:40:07;8.80;99.90
42617;DHT22;28250;52.320;0.360;2023-04-25T09:42:48;8.80;99.90
42617;DHT22;28250;52.320;0.360;2023-04-25T09:45:14;8.80;99.90
42617;DHT22;28250;52.320;0.360;2023-04-25T09:47:42;9.10;99.90
42617;DHT22;28250;52.320;0.360;2023-04-25T09:50:15;9.40;99.90
42617;DHT22;28250;52.320;0.360;2023-04-25T09:52:44;9.40;99.90
42617;DHT22;28250;52.320;0.360;2023-04-25T09:55:16;9.50;99.90
42617;DHT22;28250;52.320;0.360;2023-04-25T09:57:47;10.10;99.90
42617;DHT22;28250;52.320;0.360;2023-04-25T10:00:15;10.00;99.90
42617;DHT22;28250;52.320;0.360;2023-04-25T10:02:42;9.50;99.90
42617;DHT22;28250;52.320;0.360;2023-04-25T10:05:29;9.40;99.90
42617;DHT22;28250;52.320;0.360;2023-04-25T10:08:03;10.10;99.90
42617;DHT22;28250;52.320;0.360;2023-04-25T10:10:30;9.70;99.90
42617;DHT22;28250;52.320;0.360;2023-04-25T10:13:04;9.40;99.90
42617;DHT22;28250;52.320;0.360;2023-04-25T10:15:34;10.00;99.90
42617;DHT22;28250;52.320;0.360;2023-04-25T10:18:01;11.30;99.90
42617;DHT22;28250;52.320;0.360;2023-04-25T10:20:29;11.00;99.90
42617;DHT22;28250;52.320;0.360;2023-04-25T10:23:02;11.30;99.90
42617;DHT22;28250;52.320;0.360;2023-04-25T10:25:33;11.70;99.90
42617;DHT22;28250;52.320;0.360;2023-04-25T10:28:00;11.60;99.90
42617;DHT22;28250;52.320;0.360;2023-04-25T10:30:27;12.00;99.90
42617;DHT22;28250;52.320;0.360;2023-04-25T10:32:55;11.10;99.90
42617;DHT22;28250;52.320;0.360;2023-04-25T10:35:26;10.80;99.90
42617;DHT22;28250;52.320;0.360;2023-04-25T10:38:14;10.60;99.90
42617;DHT22;28250;52.320;0.360;2023-04-25T10:40:40;10.60;99.90
42617;DHT22;28250;52.320;0.360;2023-04-25T10:45:59;11.20;99.90
42617;DHT22;28250;52.320;0.360;2023-04-25T10:48:26;12.30;99.90
42617;DHT22;28250;52.320;0.360;2023-04-25T10:51:23;11.50;99.90
42617;DHT22;28250;52.320;0.360;2023-04-25T10:54:02;11.00;99.90
42617;DHT22;28250;52.320;0.360;2023-04-25T10:56:37;11.10;99.90
42617;DHT22;28250;52.320;0.360;2023-04-25T10:59:10;10.90;99.90
42617;DHT22;28250;52.320;0.360;2023-04-25T11:01:44;11.30;99.90
42617;DHT22;28250;52.320;0.360;2023-04-25T11:04:22;11.70;99.90
42617;DHT22;28250;52.320;0.360;2023-04-25T11:09:52;11.80;99.90
42617;DHT22;28250;52.320;0.360;2023-04-25T11:12:19;11.70;99.90
42617;DHT22;28250;52.320;0.360;2023-04-25T11:14:45;11.70;99.90
42617;DHT22;28250;52.320;0.360;2023-04-25T11:17:11;10.90;99.90
42617;DHT22;28250;52.320;0.360;2023-04-25T11:19:37;11.10;99.90
42617;DHT22;28250;52.320;0.360;2023-04-25T11:22:03;11.60;99.90
42617;DHT22;28250;52.320;0.360;2023-04-25T11:24:31;12.90;99.90
42617;DHT22;28250;52.320;0.360;2023-04-25T11:26:58;12.60;99.90
42617;DHT22;28250;52.320;0.360;2023-04-25T11:29:29;12.20;99.90
42617;DHT22;28250;52.320;0.360;2023-04-25T11:31:56;12.00;99.90
42617;DHT22;28250;52.320;0.360;2023-04-25T11:34:24;12.30;99.90
42617;DHT22;28250;52.320;0.360;2023-04-25T11:36:51;12.10;99.90
42617;DHT22;28250;52.320;0.360;2023-04-25T11:39:18;11.80;99.90
42617;DHT22;28250;52.320;0.360;2023-04-25T11:41:46;11.90;99.90
42617;DHT22;28250;52.320;0.360;2023-04-25T11:44:13;12.60;99.90
42617;DHT22;28250;52.320;0.360;2023-04-25T11:46:42;12.50;99.90
42617;DHT22;28250;52.320;0.360;2023-04-25T11:49:09;12.10;99.90
42617;DHT22;28250;52.320;0.360;2023-04-25T11:51:46;12.50;99.90
42617;DHT22;28250;52.320;0.360;2023-04-25T11:54:13;12.10;99.90
42617;DHT22;28250;52.320;0.360;2023-04-25T11:56:44;12.00;99.90
42617;DHT22;28250;52.320;0.360;2023-04-25T11:59:12;12.20;99.90
42617;DHT22;28250;52.320;0.360;2023-04-25T12:01:47;12.20;99.90
42617;DHT22;28250;52.320;0.360;2023-04-25T12:04:19;12.40;99.90
42617;DHT22;28250;52.320;0.360;2023-04-25T12:06:54;12.60;99.90
42617;DHT22;28250;52.320;0.360;2023-04-25T12:09:31;13.70;99.90
42617;DHT22;28250;52.320;0.360;2023-04-25T12:11:58;14.50;99.90
42617;DHT22;28250;52.320;0.360;2023-04-25T12:14:33;14.40;99.90
42617;DHT22;28250;52.320;0.360;2023-04-25T12:17:02;13.20;99.90
42617;DHT22;28250;52.320;0.360;2023-04-25T12:19:36;12.90;99.90
42617;DHT22;28250;52.320;0.360;2023-04-25T12:22:19;12.80;99.90
42617;DHT22;28250;52.320;0.360;2023-04-25T12:24:46;13.00;99.90
42617;DHT22;28250;52.320;0.360;2023-04-25T12:27:15;13.90;99.90
42617;DHT22;28250;52.320;0.360;2023-04-25T12:29:53;13.70;99.90
42617;DHT22;28250;52.320;0.360;2023-04-25T12:32:20;14.20;99.90
42617;DHT22;28250;52.320;0.360;2023-04-25T12:34:46;14.30;99.90
42617;DHT22;28250;52.320;0.360;2023-04-25T12:37:12;13.90;99.90
42617;DHT22;28250;52.320;0.360;2023-04-25T12:39:39;15.00;99.90
42617;DHT22;28250;52.320;0.360;2023-04-25T12:42:05;15.50;99.90
42617;DHT22;28250;52.320;0.360;2023-04-25T12:44:33;15.10;99.90
42617;DHT22;28250;52.320;0.360;2023-04-25T12:47:00;14.00;99.90
42617;DHT22;28250;52.320;0.360;2023-04-25T12:49:26;13.50;99.90
42617;DHT22;28250;52.320;0.360;2023-04-25T12:51:52;13.40;99.90
42617;DHT22;28250;52.320;0.360;2023-04-25T12:54:18;12.90;99.90
42617;DHT22;28250;52.320;0.360;2023-04-25T12:56:44;12.60;99.90
42617;DHT22;28250;52.320;0.360;2023-04-25T12:59:12;12.80;99.90
42617;DHT22;28250;52.320;0.360;2023-04-25T13:01:38;12.90;99.90
42617;DHT22;28250;52.320;0.360;2023-04-25T13:04:04;12.90;99.90
42617;DHT22;28250;52.320;0.360;2023-04-25T13:06:30;13.80;99.90
42617;DHT22;28250;52.320;0.360;2023-04-25T13:08:56;14.70;99.90
42617;DHT22;28250;52.320;0.360;2023-04-25T13:11:22;15.00;99.90
42617;DHT22;28250;52.320;0.360;2023-04-25T13:13:48;15.40;99.90
42617;DHT22;28250;52.320;0.360;2023-04-25T13:16:14;15.70;99.90
42617;DHT22;28250;52.320;0.360;2023-04-25T13:18:40;14.80;99.90
42617;DHT22;28250;52.320;0.360;2023-04-25T13:21:08;14.30;99.90
42617;DHT22;28250;52.320;0.360;2023-04-25T13:23:35;13.20;99.90
42617;DHT22;28250;52.320;0.360;2023-04-25T13:26:01;13.00;99.90
42617;DHT22;28250;52.320;0.360;2023-04-25T13:28:27;13.00;99.90
42617;DHT22;28250;52.320;0.360;2023-04-25T13:30:54;13.20;99.90
42617;DHT22;28250;52.320;0.360;2023-04-25T13:33:20;13.10;99.90
42617;DHT22;28250;52.320;0.360;2023-04-25T13:35:48;12.90;99.90
42617;DHT22;28250;52.320;0.360;2023-04-25T13:38:21;12.70;99.90
42617;DHT22;28250;52.320;0.360;2023-04-25T13:40:51;13.30;99.90
42617;DHT22;28250;52.320;0.360;2023-04-25T13:43:21;13.40;99.90
42617;DHT22;28250;52.320;0.360;2023-04-25T13:45:48;13.40;99.90
42617;DHT22;28250;52.320;0.360;2023-04-25T13:48:15;13.00;99.90
42617;DHT22;28250;52.320;0.360;2023-04-25T13:50:41;14.10;99.90
42617;DHT22;28250;52.320;0.360;2023-04-25T13:53:07;14.60;99.90
42617;DHT22;28250;52.320;0.360;2023-04-25T13:55:34;15.10;99.90
42617;DHT22;28250;52.320;0.360;2023-04-25T13:58:02;15.40;99.90
42617;DHT22;28250;52.320;0.360;2023-04-25T14:00:35;15.10;99.90
42617;DHT22;28250;52.320;0.360;2023-04-25T14:03:03;15.20;99.90
42617;DHT22;28250;52.320;0.360;2023-04-25T14:05:32;14.50;99.90
42617;DHT22;28250;52.320;0.360;2023-04-25T14:08:05;14.90;99.90
42617;DHT22;28250;52.320;0.360;2023-04-25T14:10:32;14.70;99.90
42617;DHT22;28250;52.320;0.360;2023-04-25T14:12:58;14.50;99.90
42617;DHT22;28250;52.320;0.360;2023-04-25T14:15:24;15.30;99.90
42617;DHT22;28250;52.320;0.360;2023-04-25T14:17:51;16.00;99.90
42617;DHT22;28250;52.320;0.360;2023-04-25T14:20:17;16.10;99.90
42617;DHT22;28250;52.320;0.360;2023-04-25T14:22:45;15.40;99.90
42617;DHT22;28250;52.320;0.360;2023-04-25T14:25:11;14.60;99.90
42617;DHT22;28250;52.320;0.360;2023-04-25T14:27:38;13.90;99.90
42617;DHT22;28250;52.320;0.360;2023-04-25T14:30:04;14.10;99.90
42617;DHT22;28250;52.320;0.360;2023-04-25T14:32:32;14.00;99.90
42617;DHT22;28250;52.320;0.360;2023-04-25T14:34:58;13.50;99.90
42617;DHT22;28250;52.320;0.360;2023-04-25T14:37:24;13.20;99.90
42617;DHT22;28250;52.320;0.360;2023-04-25T14:39:50;13.20;99.90
42617;DHT22;28250;52.320;0.360;2023-04-25T14:42:16;13.30;99.90
42617;DHT22;28250;52.320;0.360;2023-04-25T14:44:42;13.60;99.90
42617;DHT22;28250;52.320;0.360;2023-04-25T14:47:08;13.80;99.90
42617;DHT22;28250;52.320;0.360;2023-04-25T14:49:34;13.70;99.90
42617;DHT22;28250;52.320;0.360;2023-04-25T14:52:00;13.60;99.90
42617;DHT22;28250;52.320;0.360;2023-04-25T14:54:26;13.70;99.90
42617;DHT22;28250;52.320;0.360;2023-04-25T14:56:52;13.50;99.90
42617;DHT22;28250;52.320;0.360;2023-04-25T14:59:18;13.40;99.90
42617;DHT22;28250;52.320;0.360;2023-04-25T15:01:46;13.30;99.90
42617;DHT22;28250;52.320;0.360;2023-04-25T15:04:12;13.10;99.90
42617;DHT22;28250;52.320;0.360;2023-04-25T15:06:39;13.20;99.90
42617;DHT22;28250;52.320;0.360;2023-04-25T15:09:05;13.00;99.90
42617;DHT22;28250;52.320;0.360;2023-04-25T15:11:31;13.20;99.90
42617;DHT22;28250;52.320;0.360;2023-04-25T15:13:58;13.10;99.90
42617;DHT22;28250;52.320;0.360;2023-04-25T15:16:23;13.30;99.90
42617;DHT22;28250;52.320;0.360;2023-04-25T15:18:50;14.10;99.90
42617;DHT22;28250;52.320;0.360;2023-04-25T15:21:16;14.60;99.90
42617;DHT22;28250;52.320;0.360;2023-04-25T15:23:42;14.50;99.90
42617;DHT22;28250;52.320;0.360;2023-04-25T15:26:08;14.50;99.90
42617;DHT22;28250;52.320;0.360;2023-04-25T15:28:34;13.80;99.90
42617;DHT22;28250;52.320;0.360;2023-04-25T15:31:00;13.20;99.90
42617;DHT22;28250;52.320;0.360;2023-04-25T15:33:26;13.50;99.90
42617;DHT22;28250;52.320;0.360;2023-04-25T15:35:52;13.90;99.90
42617;DHT22;28250;52.320;0.360;2023-04-25T15:38:18;14.10;99.90
42617;DHT22;28250;52.320;0.360;2023-04-25T15:40:44;14.00;99.90
42617;DHT22;28250;52.320;0.360;2023-04-25T15:43:10;13.60;99.90
42617;DHT22;28250;52.320;0.360;2023-04-25T15:45:40;13.60;99.90
42617;DHT22;28250;52.320;0.360;2023-04-25T15:48:07;13.80;99.90
42617;DHT22;28250;52.320;0.360;2023-04-25T15:50:33;14.00;99.90
42617;DHT22;28250;52.320;0.360;2023-04-25T15:53:00;14.20;99.90
42617;DHT22;28250;52.320;0.360;2023-04-25T15:55:27;14.00;99.90
42617;DHT22;28250;52.320;0.360;2023-04-25T15:57:53;14.10;99.90
42617;DHT22;28250;52.320;0.360;2023-04-25T16:00:20;13.90;99.90